Time;durP1;ratioP1;P1;durP2;ratioP2;P2;SDS_P1;SDS_P2;PMS_P1;PMS_P2;Temp;Humidity;BMP_temperature;BMP_pressure;BME280_temperature;BME280_humidity;BME280_pressure;Samples;Min_cycle;Max_cycle;Signal;HPM_P1;HPM_P2
2022/01/12 00:01:39;;;;;;;41.13;15.53;;;;;;;;;;5050199;28;20577;-71
2022/01/12 00:04:05;;;;;;;36.17;14.27;;;;;;;;;;5050154;28;20059;-71
2022/01/12 00:06:31;;;;;;;38.30;14.47;;;;;;;;;;5050341;28;20012;-72
2022/01/12 00:08:59;;;;;;;39.73;13.93;;;;;;;;;;5053614;28;20039;-71
2022/01/12 00:11:25;;;;;;;35.10;13.47;;;;;;;;;;5052554;28;20021;-73
2022/01/12 00:13:51;;;;;;;25.63;12.40;;;;;;;;;;5052634;28;20020;-70
2022/01/12 00:16:18;;;;;;;33.33;13.63;;;;;;;;;;5039535;28;20022;-70
2022/01/12 00:18:45;;;;;;;31.03;12.50;;;;;;;;;;5034053;28;20396;-72
2022/01/12 00:21:14;;;;;;;32.23;12.03;;;;;;;;;;5051171;28;20090;-71
2022/01/12 00:23:40;;;;;;;32.57;12.97;;;;;;;;;;5054289;28;20048;-70
2022/01/12 00:26:11;;;;;;;29.07;11.83;;;;;;;;;;5052505;28;20047;-72
2022/01/12 00:34:10;;;;;;;30.23;10.60;;;;;;;;;;5032511;28;20075;-70
2022/01/12 00:36:37;;;;;;;29.47;11.07;;;;;;;;;;5030981;28;20037;-71
2022/01/12 00:39:04;;;;;;;30.07;13.73;;;;;;;;;;5032282;28;20025;-70
2022/01/12 00:41:30;;;;;;;28.90;11.53;;;;;;;;;;5032195;28;20045;-72
2022/01/12 00:44:00;;;;;;;34.33;13.43;;;;;;;;;;5032304;28;20040;-71
2022/01/12 00:46:30;;;;;;;28.47;12.57;;;;;;;;;;5042293;28;20028;-71
2022/01/12 00:48:57;;;;;;;30.90;13.23;;;;;;;;;;5050846;28;20032;-74
2022/01/12 00:51:26;;;;;;;37.47;12.07;;;;;;;;;;5051142;28;20029;-70
2022/01/12 00:53:55;;;;;;;33.23;12.53;;;;;;;;;;5051472;28;20020;-72
2022/01/12 00:56:22;;;;;;;33.77;12.00;;;;;;;;;;5050206;28;20113;-71
2022/01/12 00:58:47;;;;;;;31.47;13.03;;;;;;;;;;5050135;28;20380;-72
2022/01/12 01:01:13;;;;;;;33.50;12.73;;;;;;;;;;5051361;28;20131;-71
2022/01/12 01:03:38;;;;;;;30.87;12.07;;;;;;;;;;5049776;28;20098;-71
2022/01/12 01:06:07;;;;;;;30.03;11.77;;;;;;;;;;5051512;28;20020;-71
2022/01/12 01:08:33;;;;;;;28.90;12.13;;;;;;;;;;5050918;28;20029;-72
2022/01/12 01:10:58;;;;;;;26.10;11.57;;;;;;;;;;5050901;28;20025;-71
2022/01/12 01:13:27;;;;;;;26.97;11.23;;;;;;;;;;5050834;28;20053;-69
2022/01/12 01:26:42;;;;;;;24.17;11.00;;;;;;;;;;5051559;28;20035;-70
2022/01/12 01:29:07;;;;;;;35.30;14.70;;;;;;;;;;5050754;28;20025;-73
2022/01/12 01:31:34;;;;;;;30.23;11.90;;;;;;;;;;5050089;28;20246;-71
2022/01/12 01:34:08;;;;;;;29.87;12.77;;;;;;;;;;5032867;28;20033;-70
2022/01/12 01:36:47;;;;;;;29.97;11.10;;;;;;;;;;5050665;28;20044;-71
2022/01/12 01:39:17;;;;;;;26.47;11.60;;;;;;;;;;5048550;28;20025;-71
2022/01/12 01:41:49;;;;;;;32.23;11.60;;;;;;;;;;5051088;28;20051;-72
2022/01/12 01:54:56;;;;;;;27.67;10.97;;;;;;;;;;5050803;28;20036;-71
2022/01/12 01:57:24;;;;;;;33.53;13.40;;;;;;;;;;5050280;28;20029;-71
2022/01/12 01:59:50;;;;;;;27.77;11.30;;;;;;;;;;5050324;28;20029;-70
2022/01/12 02:02:17;;;;;;;30.60;11.67;;;;;;;;;;5048875;28;20090;-71
2022/01/12 02:04:42;;;;;;;30.80;12.00;;;;;;;;;;5050494;28;20036;-70
2022/01/12 02:07:08;;;;;;;30.23;12.33;;;;;;;;;;5048964;28;20035;-70
2022/01/12 02:09:34;;;;;;;33.47;11.47;;;;;;;;;;5049090;28;20052;-70
2022/01/12 02:12:01;;;;;;;26.87;10.87;;;;;;;;;;5050575;28;20079;-70
2022/01/12 02:14:28;;;;;;;28.53;10.53;;;;;;;;;;5050909;28;20067;-70
2022/01/12 02:17:00;;;;;;;21.23;10.00;;;;;;;;;;5049959;28;20021;-71
2022/01/12 02:36:25;;;;;;;29.40;11.10;;;;;;;;;;5050235;28;20035;-72
2022/01/12 02:41:49;;;;;;;24.53;9.77;;;;;;;;;;5050395;28;20095;-72
2022/01/12 02:55:05;;;;;;;24.40;9.50;;;;;;;;;;5049931;28;20519;-70
2022/01/12 02:57:31;;;;;;;21.30;8.50;;;;;;;;;;5049705;28;20083;-71
2022/01/12 03:02:35;;;;;;;23.70;8.82;;;;;;;;;;5049694;28;20070;-71
2022/01/12 03:07:38;;;;;;;21.20;9.20;;;;;;;;;;5049752;28;20025;-71
2022/01/12 03:10:09;;;;;;;24.80;9.80;;;;;;;;;;5049128;28;20032;-70
2022/01/12 03:12:37;;;;;;;25.97;10.03;;;;;;;;;;5048947;28;20033;-71
2022/01/12 03:15:04;;;;;;;25.40;9.50;;;;;;;;;;5047535;28;20065;-73
2022/01/12 03:17:29;;;;;;;25.43;10.27;;;;;;;;;;5047547;28;20063;-71
2022/01/12 03:19:55;;;;;;;23.83;9.80;;;;;;;;;;5081200;28;20075;-71
2022/01/12 03:22:20;;;;;;;25.37;9.47;;;;;;;;;;5049189;28;20038;-71
2022/01/12 03:24:46;;;;;;;25.47;9.57;;;;;;;;;;5049163;28;20036;-69
2022/01/12 03:27:14;;;;;;;28.67;10.60;;;;;;;;;;5049155;28;20108;-70
2022/01/12 03:29:43;;;;;;;23.03;8.90;;;;;;;;;;5049211;28;20143;-71
2022/01/12 03:32:11;;;;;;;24.73;10.30;;;;;;;;;;5047964;28;20037;-72
2022/01/12 03:34:39;;;;;;;23.63;9.10;;;;;;;;;;5048787;28;20024;-73
2022/01/12 03:39:51;;;;;;;23.40;9.83;;;;;;;;;;5048938;28;20095;-70
2022/01/12 03:42:19;;;;;;;24.67;10.17;;;;;;;;;;5048740;28;20048;-72
2022/01/12 03:44:44;;;;;;;28.97;10.50;;;;;;;;;;5047799;28;20503;-73
2022/01/12 03:47:10;;;;;;;28.67;9.60;;;;;;;;;;5047663;28;20037;-72
2022/01/12 03:49:35;;;;;;;22.60;9.07;;;;;;;;;;5048864;28;20025;-71
2022/01/12 03:52:01;;;;;;;25.53;10.17;;;;;;;;;;5048994;28;20457;-71
2022/01/12 03:54:26;;;;;;;24.17;9.00;;;;;;;;;;5048679;28;20024;-71
2022/01/12 03:56:52;;;;;;;24.97;9.53;;;;;;;;;;5048781;28;20482;-70
2022/01/12 03:59:17;;;;;;;21.77;8.80;;;;;;;;;;5048722;28;20029;-72
2022/01/12 04:01:43;;;;;;;20.80;9.03;;;;;;;;;;5049241;28;20387;-71
2022/01/12 04:04:16;;;;;;;27.63;9.63;;;;;;;;;;5046710;28;20178;-71
2022/01/12 04:09:26;;;;;;;23.53;8.87;;;;;;;;;;5048644;28;20155;-71
2022/01/12 04:11:51;;;;;;;26.97;9.63;;;;;;;;;;5047756;28;20511;-71
2022/01/12 04:14:17;;;;;;;20.23;8.10;;;;;;;;;;5046961;28;20025;-70
2022/01/12 04:16:42;;;;;;;30.03;10.50;;;;;;;;;;5047305;28;20596;-71
2022/01/12 04:19:08;;;;;;;24.63;9.47;;;;;;;;;;5048048;28;20034;-71
2022/01/12 04:21:41;;;;;;;31.10;10.00;;;;;;;;;;5048652;28;20081;-71
2022/01/12 04:24:07;;;;;;;25.73;11.77;;;;;;;;;;5047028;28;20115;-70
2022/01/12 04:26:32;;;;;;;22.10;9.40;;;;;;;;;;5047064;28;20170;-70
2022/01/12 04:28:58;;;;;;;23.53;8.77;;;;;;;;;;5047016;28;20044;-72
2022/01/12 04:31:23;;;;;;;24.97;10.43;;;;;;;;;;5046730;28;20116;-71
2022/01/12 04:33:49;;;;;;;18.93;8.70;;;;;;;;;;5046699;28;20032;-72
2022/01/12 04:36:15;;;;;;;21.40;8.73;;;;;;;;;;5048131;28;20029;-70
2022/01/12 04:38:43;;;;;;;21.80;8.60;;;;;;;;;;5047067;28;20048;-71
2022/01/12 04:41:10;;;;;;;27.10;9.70;;;;;;;;;;5048475;28;20432;-71
2022/01/12 04:43:39;;;;;;;22.27;8.73;;;;;;;;;;5048411;28;20163;-71
2022/01/12 04:48:36;;;;;;;18.40;8.20;;;;;;;;;;5050550;28;20075;-70
2022/01/12 04:51:02;;;;;;;24.17;7.97;;;;;;;;;;5052059;28;20276;-71
2022/01/12 04:53:30;;;;;;;17.37;8.80;;;;;;;;;;5051642;28;20477;-72
2022/01/12 04:55:57;;;;;;;22.60;9.03;;;;;;;;;;5051934;28;20473;-70
2022/01/12 04:58:22;;;;;;;19.13;8.57;;;;;;;;;;5051981;28;20028;-71
2022/01/12 05:00:51;;;;;;;25.10;9.00;;;;;;;;;;5051996;28;20494;-71
2022/01/12 05:13:55;;;;;;;23.80;9.33;;;;;;;;;;5053340;28;20040;-72
2022/01/12 05:16:22;;;;;;;21.40;8.07;;;;;;;;;;5051130;28;20440;-70
2022/01/12 05:18:49;;;;;;;21.33;8.37;;;;;;;;;;5049142;28;20032;-69
2022/01/12 05:21:16;;;;;;;31.23;9.73;;;;;;;;;;5051760;28;20536;-72
2022/01/12 05:23:42;;;;;;;17.87;8.67;;;;;;;;;;5054106;28;20354;-71
2022/01/12 05:26:08;;;;;;;21.50;9.13;;;;;;;;;;5053200;28;20103;-70
2022/01/12 05:28:34;;;;;;;27.17;9.67;;;;;;;;;;5050739;28;20025;-71
2022/01/12 05:31:01;;;;;;;21.47;8.77;;;;;;;;;;5049785;28;20108;-72
2022/01/12 05:33:28;;;;;;;20.47;7.87;;;;;;;;;;5049133;28;20025;-71
2022/01/12 05:35:56;;;;;;;19.47;8.67;;;;;;;;;;5049858;28;20052;-71
2022/01/12 05:38:22;;;;;;;26.00;9.00;;;;;;;;;;5049658;28;20025;-74
2022/01/12 05:40:55;;;;;;;24.23;7.63;;;;;;;;;;5051205;28;20056;-73
2022/01/12 05:43:25;;;;;;;23.10;8.17;;;;;;;;;;5050523;28;20405;-72
2022/01/12 05:45:52;;;;;;;21.97;9.20;;;;;;;;;;5049683;28;20374;-71
2022/01/12 05:50:49;;;;;;;20.07;8.00;;;;;;;;;;5031149;28;20076;-72
2022/01/12 05:53:17;;;;;;;15.13;7.53;;;;;;;;;;5030599;28;20026;-71
2022/01/12 05:55:43;;;;;;;21.87;8.73;;;;;;;;;;5030708;28;20021;-71
2022/01/12 05:58:09;;;;;;;19.90;8.00;;;;;;;;;;5030913;28;20036;-71
2022/01/12 06:00:35;;;;;;;20.50;8.13;;;;;;;;;;5030788;28;20026;-72
2022/01/12 06:03:01;;;;;;;17.50;7.47;;;;;;;;;;5029457;28;20025;-71
2022/01/12 06:05:28;;;;;;;25.50;7.87;;;;;;;;;;5046705;28;20040;-71
2022/01/12 06:07:54;;;;;;;19.30;8.37;;;;;;;;;;5050934;28;20013;-70
2022/01/12 06:10:24;;;;;;;22.17;8.47;;;;;;;;;;5050366;28;20033;-74
2022/01/12 06:12:51;;;;;;;23.40;8.13;;;;;;;;;;5050572;28;20025;-71
2022/01/12 06:15:17;;;;;;;21.03;8.77;;;;;;;;;;5050191;28;20388;-72
2022/01/12 06:17:43;;;;;;;18.10;8.07;;;;;;;;;;5048793;28;20028;-72
2022/01/12 06:20:09;;;;;;;17.67;8.10;;;;;;;;;;5048361;28;20024;-71
2022/01/12 06:22:36;;;;;;;19.30;7.87;;;;;;;;;;5049034;28;20415;-72
2022/01/12 06:25:06;;;;;;;18.33;7.40;;;;;;;;;;5048546;28;20029;-73
2022/01/12 06:27:34;;;;;;;18.30;8.27;;;;;;;;;;5045509;28;20060;-71
2022/01/12 06:30:15;;;;;;;15.57;7.83;;;;;;;;;;5045597;28;20029;-72
2022/01/12 06:32:40;;;;;;;22.43;8.80;;;;;;;;;;5051715;28;20090;-72
2022/01/12 06:35:06;;;;;;;18.83;8.67;;;;;;;;;;5048817;28;20329;-72
2022/01/12 06:37:32;;;;;;;18.03;7.40;;;;;;;;;;5082391;28;20115;-70
2022/01/12 06:39:58;;;;;;;26.50;8.77;;;;;;;;;;5031469;28;20139;-71
2022/01/12 06:42:25;;;;;;;20.53;8.27;;;;;;;;;;5047439;28;20029;-71
2022/01/12 06:44:51;;;;;;;20.10;8.47;;;;;;;;;;5048940;28;20013;-69
2022/01/12 06:47:18;;;;;;;16.47;8.23;;;;;;;;;;5047382;28;20020;-72
2022/01/12 06:49:46;;;;;;;21.50;7.80;;;;;;;;;;5048887;28;20043;-72
2022/01/12 06:52:12;;;;;;;14.63;6.57;;;;;;;;;;5045993;28;20051;-71
2022/01/12 06:54:38;;;;;;;23.93;9.50;;;;;;;;;;5047810;28;20017;-69
2022/01/12 06:57:04;;;;;;;22.40;9.33;;;;;;;;;;5047434;28;20033;-74
2022/01/12 06:59:29;;;;;;;19.07;7.87;;;;;;;;;;5048308;28;20021;-72
2022/01/12 07:01:55;;;;;;;13.40;7.23;;;;;;;;;;5048924;28;20076;-71
2022/01/12 07:04:20;;;;;;;18.70;7.90;;;;;;;;;;5045942;28;20339;-71
2022/01/12 07:06:46;;;;;;;19.33;8.67;;;;;;;;;;5035938;28;20100;-72
2022/01/12 07:09:12;;;;;;;26.70;9.07;;;;;;;;;;5047167;28;20031;-70
2022/01/12 07:11:38;;;;;;;23.40;9.40;;;;;;;;;;5047701;28;20025;-71
2022/01/12 07:14:03;;;;;;;17.23;8.00;;;;;;;;;;5048147;28;20247;-72
2022/01/12 07:16:29;;;;;;;16.13;8.70;;;;;;;;;;5047569;28;20074;-72
2022/01/12 07:18:59;;;;;;;21.60;9.13;;;;;;;;;;5036980;28;20021;-72
2022/01/12 07:21:26;;;;;;;20.27;8.17;;;;;;;;;;5047395;28;20064;-73
2022/01/12 07:23:57;;;;;;;23.13;8.37;;;;;;;;;;5042596;28;20029;-70
2022/01/12 07:26:24;;;;;;;20.37;8.40;;;;;;;;;;5047304;28;20056;-70
2022/01/12 07:28:50;;;;;;;17.10;7.30;;;;;;;;;;5047065;28;20044;-70
2022/01/12 07:31:15;;;;;;;19.53;9.20;;;;;;;;;;5048998;28;20353;-70
2022/01/12 07:33:41;;;;;;;15.50;8.03;;;;;;;;;;5047946;28;20021;-71
2022/01/12 07:36:10;;;;;;;20.30;8.57;;;;;;;;;;5041602;28;20036;-73
2022/01/12 07:38:36;;;;;;;22.53;9.17;;;;;;;;;;5047199;28;20119;-72
2022/01/12 07:41:03;;;;;;;20.00;8.63;;;;;;;;;;5047970;28;20128;-70
2022/01/12 07:43:29;;;;;;;24.77;8.03;;;;;;;;;;5047083;28;20057;-72
2022/01/12 07:45:55;;;;;;;20.27;10.20;;;;;;;;;;5035706;28;20114;-71
2022/01/12 07:48:20;;;;;;;20.03;7.93;;;;;;;;;;5036972;28;20157;-70
2022/01/12 07:50:46;;;;;;;20.27;9.63;;;;;;;;;;5038012;28;20025;-72
2022/01/12 07:53:12;;;;;;;22.13;9.10;;;;;;;;;;5041747;28;20036;-71
2022/01/12 07:55:37;;;;;;;19.77;10.10;;;;;;;;;;5039086;28;20059;-73
2022/01/12 07:58:03;;;;;;;20.40;7.60;;;;;;;;;;5039338;28;20071;-73
2022/01/12 08:00:29;;;;;;;20.33;7.73;;;;;;;;;;5036966;28;20033;-71
2022/01/12 08:02:55;;;;;;;15.27;7.53;;;;;;;;;;5041370;28;20426;-72
2022/01/12 08:05:24;;;;;;;25.43;8.73;;;;;;;;;;5037061;28;20354;-72
2022/01/12 08:07:49;;;;;;;17.03;7.27;;;;;;;;;;5031131;28;20860;-72
2022/01/12 08:10:16;;;;;;;17.30;7.17;;;;;;;;;;5033258;28;20180;-73
2022/01/12 08:12:44;;;;;;;15.97;7.50;;;;;;;;;;5019942;28;20493;-72
2022/01/12 08:15:11;;;;;;;13.70;6.37;;;;;;;;;;5039001;28;20021;-73
2022/01/12 08:17:37;;;;;;;14.07;6.13;;;;;;;;;;5037141;28;20075;-72
2022/01/12 08:20:06;;;;;;;13.97;7.63;;;;;;;;;;5037825;28;20113;-72
2022/01/12 08:22:32;;;;;;;11.47;6.40;;;;;;;;;;5041127;28;20051;-72
2022/01/12 08:24:58;;;;;;;15.67;7.23;;;;;;;;;;5040885;28;20029;-71
2022/01/12 08:27:23;;;;;;;18.80;7.40;;;;;;;;;;5042076;28;20746;-73
2022/01/12 08:29:50;;;;;;;15.83;7.23;;;;;;;;;;5031344;28;20115;-71
2022/01/12 08:32:17;;;;;;;15.00;7.03;;;;;;;;;;5040954;28;20029;-72
2022/01/12 08:34:43;;;;;;;21.87;8.97;;;;;;;;;;5040866;28;20102;-70
2022/01/12 08:37:09;;;;;;;16.10;7.50;;;;;;;;;;5039624;28;20036;-72
2022/01/12 08:39:35;;;;;;;14.70;7.47;;;;;;;;;;5039692;28;20045;-72
2022/01/12 08:42:03;;;;;;;16.60;7.30;;;;;;;;;;5044413;28;20048;-72
2022/01/12 08:44:28;;;;;;;16.43;7.33;;;;;;;;;;5042668;28;20476;-73
2022/01/12 08:46:54;;;;;;;16.13;7.53;;;;;;;;;;5041582;28;20086;-73
2022/01/12 08:49:21;;;;;;;18.07;7.73;;;;;;;;;;5037875;28;20094;-72
2022/01/12 08:51:47;;;;;;;15.87;7.30;;;;;;;;;;5039416;28;20036;-71
2022/01/12 08:54:13;;;;;;;13.93;7.27;;;;;;;;;;5042227;28;20017;-73
2022/01/12 08:56:39;;;;;;;12.17;6.87;;;;;;;;;;5039994;28;20045;-73
2022/01/12 08:59:04;;;;;;;18.30;8.30;;;;;;;;;;5036773;28;20040;-74
2022/01/12 09:01:30;;;;;;;20.33;9.07;;;;;;;;;;5041974;28;21405;-73
2022/01/12 09:03:57;;;;;;;16.53;7.93;;;;;;;;;;5040901;28;20043;-74
2022/01/12 09:06:23;;;;;;;16.07;7.27;;;;;;;;;;5038941;28;20044;-74
2022/01/12 09:08:49;;;;;;;14.87;7.90;;;;;;;;;;5039602;28;20924;-74
2022/01/12 09:11:17;;;;;;;15.37;7.67;;;;;;;;;;5036937;28;20033;-71
2022/01/12 09:13:43;;;;;;;16.33;7.83;;;;;;;;;;5038565;28;20025;-73
2022/01/12 09:16:10;;;;;;;13.67;6.80;;;;;;;;;;5039093;28;20432;-72
2022/01/12 09:18:39;;;;;;;14.53;7.63;;;;;;;;;;5040341;28;20024;-73
2022/01/12 09:21:06;;;;;;;24.90;8.37;;;;;;;;;;5036790;28;20024;-73
2022/01/12 09:23:33;;;;;;;14.13;7.33;;;;;;;;;;5072920;28;20033;-73
2022/01/12 09:25:58;;;;;;;16.23;8.00;;;;;;;;;;5036685;28;20041;-73
2022/01/12 09:28:25;;;;;;;15.40;7.67;;;;;;;;;;5039571;28;20102;-73
2022/01/12 09:30:52;;;;;;;20.27;8.77;;;;;;;;;;5037455;28;20290;-71
2022/01/12 09:33:18;;;;;;;20.20;9.37;;;;;;;;;;5039950;28;20025;-72
2022/01/12 09:35:46;;;;;;;18.23;8.50;;;;;;;;;;5038147;28;20451;-72
2022/01/12 09:38:11;;;;;;;19.60;7.90;;;;;;;;;;5037478;28;20941;-73
2022/01/12 09:40:41;;;;;;;15.77;7.83;;;;;;;;;;5036863;28;20046;-72
2022/01/12 09:43:07;;;;;;;20.17;8.87;;;;;;;;;;5054381;28;20029;-70
2022/01/12 09:45:33;;;;;;;21.40;8.47;;;;;;;;;;5039022;28;20122;-73
2022/01/12 09:47:58;;;;;;;16.37;7.33;;;;;;;;;;5041828;28;20032;-73
2022/01/12 09:50:25;;;;;;;18.00;9.37;;;;;;;;;;5038168;28;20082;-72
2022/01/12 09:52:53;;;;;;;14.00;7.23;;;;;;;;;;5041274;28;21037;-72
2022/01/12 09:55:20;;;;;;;17.00;7.57;;;;;;;;;;5040079;28;20486;-70
2022/01/12 09:57:45;;;;;;;18.50;7.33;;;;;;;;;;5039957;28;20131;-73
2022/01/12 10:00:13;;;;;;;13.27;6.87;;;;;;;;;;5037372;28;20032;-74
2022/01/12 10:02:42;;;;;;;18.77;7.93;;;;;;;;;;5041317;28;20493;-72
2022/01/12 10:05:09;;;;;;;16.33;7.43;;;;;;;;;;5039766;28;20029;-72
2022/01/12 10:07:36;;;;;;;13.83;6.43;;;;;;;;;;5040175;28;20442;-73
2022/01/12 10:10:08;;;;;;;17.90;8.20;;;;;;;;;;5038637;28;20102;-73
2022/01/12 10:12:34;;;;;;;13.95;7.43;;;;;;;;;;5040739;28;20232;-73
2022/01/12 10:15:10;;;;;;;16.67;8.23;;;;;;;;;;5040552;28;20032;-74
2022/01/12 10:17:42;;;;;;;15.70;6.83;;;;;;;;;;5037023;28;20238;-72
2022/01/12 10:20:21;;;;;;;12.07;7.25;;;;;;;;;;5035723;28;20451;-73
2022/01/12 10:23:10;;;;;;;13.10;6.57;;;;;;;;;;5036524;28;20052;-72
2022/01/12 10:25:41;;;;;;;13.80;7.20;;;;;;;;;;5038439;28;20032;-72
2022/01/12 10:28:25;;;;;;;13.67;7.90;;;;;;;;;;5023963;28;20039;-73
2022/01/12 10:30:58;;;;;;;12.77;6.50;;;;;;;;;;5040078;28;20548;-72
2022/01/12 10:33:30;;;;;;;12.67;7.43;;;;;;;;;;5044641;28;20029;-71
2022/01/12 10:35:58;;;;;;;14.23;7.03;;;;;;;;;;5040610;28;20428;-71
2022/01/12 10:38:25;;;;;;;16.00;7.73;;;;;;;;;;5042257;28;20044;-72
2022/01/12 10:40:56;;;;;;;11.47;6.90;;;;;;;;;;5038261;28;20097;-72
2022/01/12 10:43:28;;;;;;;18.55;8.30;;;;;;;;;;5040903;28;20044;-72
2022/01/12 10:45:55;;;;;;;13.87;7.33;;;;;;;;;;5044096;28;20029;-74
2022/01/12 10:48:34;;;;;;;18.70;8.27;;;;;;;;;;5045978;28;20033;-73
2022/01/12 10:51:00;;;;;;;18.40;8.07;;;;;;;;;;5039039;28;20051;-74
2022/01/12 10:53:31;;;;;;;17.07;7.80;;;;;;;;;;5042982;28;20025;-72
2022/01/12 10:56:08;;;;;;;20.07;9.50;;;;;;;;;;5041564;28;20032;-71
2022/01/12 10:58:36;;;;;;;16.50;9.40;;;;;;;;;;5042835;28;20032;-71
2022/01/12 11:01:02;;;;;;;15.50;7.67;;;;;;;;;;5030060;28;20040;-72
2022/01/12 11:03:29;;;;;;;15.23;8.00;;;;;;;;;;5035713;28;20033;-71
2022/01/12 11:05:55;;;;;;;15.60;8.57;;;;;;;;;;5037760;28;20032;-73
2022/01/12 11:08:35;;;;;;;18.20;9.17;;;;;;;;;;5039572;28;20028;-73
2022/01/12 11:11:02;;;;;;;15.23;7.80;;;;;;;;;;5034159;28;20044;-72
2022/01/12 11:13:30;;;;;;;17.80;8.57;;;;;;;;;;5038693;28;20028;-72
2022/01/12 11:16:04;;;;;;;16.67;8.50;;;;;;;;;;5037299;28;20025;-73
2022/01/12 11:18:35;;;;;;;21.60;7.67;;;;;;;;;;5041059;28;20037;-73
2022/01/12 11:21:10;;;;;;;16.10;9.77;;;;;;;;;;5019812;28;20044;-72
2022/01/12 11:23:39;;;;;;;15.07;7.80;;;;;;;;;;5040204;28;20033;-73
2022/01/12 11:26:22;;;;;;;14.43;8.03;;;;;;;;;;5038798;28;20489;-72
2022/01/12 11:28:51;;;;;;;12.17;7.50;;;;;;;;;;5039447;28;20055;-74
2022/01/12 11:31:23;;;;;;;15.80;7.60;;;;;;;;;;5020081;28;20447;-73
2022/01/12 11:33:51;;;;;;;13.17;7.37;;;;;;;;;;5039369;28;20024;-73
2022/01/12 11:36:20;;;;;;;13.00;8.10;;;;;;;;;;5034962;28;20059;-72
2022/01/12 11:38:51;;;;;;;19.47;9.00;;;;;;;;;;5039686;28;20033;-71
2022/01/12 11:41:26;;;;;;;19.47;8.87;;;;;;;;;;5022367;28;20045;-73
2022/01/12 11:44:01;;;;;;;16.23;8.33;;;;;;;;;;5040500;28;20491;-72
2022/01/12 11:46:39;;;;;;;15.13;7.47;;;;;;;;;;5042744;28;20104;-70
2022/01/12 11:49:08;;;;;;;11.87;6.97;;;;;;;;;;5040556;28;20173;-75
2022/01/12 11:51:45;;;;;;;17.20;8.20;;;;;;;;;;5037531;28;21046;-74
2022/01/12 11:54:16;;;;;;;14.03;8.30;;;;;;;;;;5038784;28;20385;-75
2022/01/12 11:56:53;;;;;;;16.87;7.83;;;;;;;;;;5040983;28;20029;-74
2022/01/12 11:59:20;;;;;;;19.43;8.10;;;;;;;;;;5039225;28;20028;-71
2022/01/12 12:01:52;;;;;;;14.33;7.70;;;;;;;;;;5055787;28;20024;-72
2022/01/12 12:04:32;;;;;;;11.70;6.77;;;;;;;;;;5058811;28;20056;-73
2022/01/12 12:07:11;;;;;;;15.97;7.03;;;;;;;;;;5036817;28;20064;-74
2022/01/12 12:09:53;;;;;;;15.80;7.47;;;;;;;;;;5039141;28;20036;-74
2022/01/12 12:12:26;;;;;;;14.73;8.20;;;;;;;;;;5042205;28;20366;-73
2022/01/12 12:14:54;;;;;;;16.23;7.97;;;;;;;;;;5042654;28;20081;-71
2022/01/12 12:17:25;;;;;;;12.17;7.43;;;;;;;;;;5039460;28;20528;-72
2022/01/12 12:19:51;;;;;;;17.27;9.23;;;;;;;;;;5038792;28;20033;-71
2022/01/12 12:22:20;;;;;;;20.73;8.50;;;;;;;;;;5036826;28;20546;-72
2022/01/12 12:24:52;;;;;;;12.30;6.77;;;;;;;;;;5041082;28;20073;-73
2022/01/12 12:27:19;;;;;;;;;;;;;;;;;;5041184;28;20025;-70
2022/01/12 12:29:46;;;;;;;11.70;6.90;;;;;;;;;;5041149;28;19963;-72
2022/01/12 12:32:13;;;;;;;11.70;7.40;;;;;;;;;;5041349;28;20119;-74
2022/01/12 12:34:41;;;;;;;12.53;6.60;;;;;;;;;;5041497;28;20036;-73
2022/01/12 12:37:14;;;;;;;11.50;6.70;;;;;;;;;;5042860;28;20044;-73
2022/01/12 12:39:46;;;;;;;14.75;6.88;;;;;;;;;;5044515;28;20041;-73
2022/01/12 12:42:18;;;;;;;12.40;6.95;;;;;;;;;;5046715;28;20025;-74
2022/01/12 12:44:48;;;;;;;10.50;6.43;;;;;;;;;;5046385;28;20076;-73
2022/01/12 12:47:20;;;;;;;12.27;6.93;;;;;;;;;;5046063;28;20032;-74
2022/01/12 12:49:48;;;;;;;16.10;7.80;;;;;;;;;;5044022;28;20082;-73
2022/01/12 12:52:35;;;;;;;15.90;8.03;;;;;;;;;;5047720;28;20040;-73
2022/01/12 12:55:15;;;;;;;17.43;8.70;;;;;;;;;;5048989;28;20378;-74
2022/01/12 12:57:53;;;;;;;12.47;7.10;;;;;;;;;;5044872;28;20032;-72
2022/01/12 13:00:26;;;;;;;13.30;6.90;;;;;;;;;;5035224;28;20036;-72
2022/01/12 13:02:54;;;;;;;11.33;6.50;;;;;;;;;;5038457;28;20056;-72
2022/01/12 13:05:23;;;;;;;15.13;7.47;;;;;;;;;;5055582;28;20027;-73
2022/01/12 13:07:50;;;;;;;13.93;6.57;;;;;;;;;;5040715;28;20066;-73
2022/01/12 13:10:20;;;;;;;16.20;7.50;;;;;;;;;;5038451;28;20032;-74
2022/01/12 13:12:49;;;;;;;23.37;7.40;;;;;;;;;;5040915;28;20390;-72
2022/01/12 13:15:26;;;;;;;14.60;6.10;;;;;;;;;;5040326;28;20525;-73
2022/01/12 13:17:58;;;;;;;13.33;7.13;;;;;;;;;;5040992;28;20033;-75
2022/01/12 13:23:04;;;;;;;13.02;7.05;;;;;;;;;;5043283;28;20119;-73
2022/01/12 13:25:31;;;;;;;13.37;6.77;;;;;;;;;;5040116;28;20036;-71
2022/01/12 13:27:58;;;;;;;16.27;7.53;;;;;;;;;;5041731;28;20044;-72
2022/01/12 13:30:28;;;;;;;14.93;6.73;;;;;;;;;;5038528;28;20108;-75
2022/01/12 13:32:57;;;;;;;10.60;5.83;;;;;;;;;;5022322;28;20124;-72
2022/01/12 13:35:35;;;;;;;18.97;7.17;;;;;;;;;;5040692;28;20154;-72
2022/01/12 13:38:04;;;;;;;11.87;5.97;;;;;;;;;;5042285;28;20043;-72
2022/01/12 13:40:36;;;;;;;10.97;5.80;;;;;;;;;;5038225;28;20053;-72
2022/01/12 13:43:04;;;;;;;11.52;7.18;;;;;;;;;;5042040;28;20029;-72
2022/01/12 13:45:41;;;;;;;10.30;6.53;;;;;;;;;;5041838;28;20043;-70
2022/01/12 13:48:16;;;;;;;12.37;6.27;;;;;;;;;;5071097;28;20068;-76
2022/01/12 13:50:54;;;;;;;11.97;7.30;;;;;;;;;;5036292;28;20036;-73
2022/01/12 13:53:35;;;;;;;12.93;7.03;;;;;;;;;;5024186;28;20424;-71
2022/01/12 13:56:03;;;;;;;11.13;6.47;;;;;;;;;;5039984;28;20554;-73
2022/01/12 13:58:32;;;;;;;13.57;7.53;;;;;;;;;;5022101;28;20036;-72
2022/01/12 14:01:10;;;;;;;14.97;8.53;;;;;;;;;;5036652;28;20032;-74
2022/01/12 14:03:49;;;;;;;10.77;6.73;;;;;;;;;;5040192;28;20032;-73
2022/01/12 14:06:27;;;;;;;17.63;7.43;;;;;;;;;;5037559;28;20111;-72
2022/01/12 14:08:58;;;;;;;17.97;8.37;;;;;;;;;;5040707;28;20107;-76
2022/01/12 14:11:35;;;;;;;13.10;7.88;;;;;;;;;;5039413;28;20389;-74
2022/01/12 14:14:02;;;;;;;19.57;9.53;;;;;;;;;;5040935;28;20359;-71
2022/01/12 14:16:31;;;;;;;17.30;8.37;;;;;;;;;;5038820;28;20040;-73
2022/01/12 14:19:00;;;;;;;13.87;8.90;;;;;;;;;;5040601;28;20754;-74
2022/01/12 14:21:27;;;;;;;14.77;8.10;;;;;;;;;;5037762;28;20128;-74
2022/01/12 14:23:55;;;;;;;17.67;8.97;;;;;;;;;;5038043;28;20040;-72
2022/01/12 14:26:26;;;;;;;15.47;8.90;;;;;;;;;;5038901;28;20029;-74
2022/01/12 14:28:54;;;;;;;16.27;7.95;;;;;;;;;;5037426;28;20097;-74
2022/01/12 14:31:20;;;;;;;18.47;9.40;;;;;;;;;;5029915;28;20127;-74
2022/01/12 14:33:47;;;;;;;14.23;8.63;;;;;;;;;;5032003;28;20098;-71
2022/01/12 14:36:15;;;;;;;18.83;9.70;;;;;;;;;;5037017;28;20037;-73
2022/01/12 14:38:43;;;;;;;14.40;7.50;;;;;;;;;;5036296;28;20116;-73
2022/01/12 14:41:10;;;;;;;16.07;7.90;;;;;;;;;;5015028;28;20053;-74
2022/01/12 14:43:37;;;;;;;20.17;8.93;;;;;;;;;;5039309;28;20052;-75
2022/01/12 14:46:03;;;;;;;15.43;8.87;;;;;;;;;;5041345;28;20036;-73
2022/01/12 14:48:31;;;;;;;19.57;9.50;;;;;;;;;;5040758;28;20071;-73
2022/01/12 14:50:58;;;;;;;19.80;10.13;;;;;;;;;;5036337;28;20051;-72
2022/01/12 14:53:24;;;;;;;21.37;10.33;;;;;;;;;;5040417;28;20555;-72
2022/01/12 14:55:53;;;;;;;20.83;9.27;;;;;;;;;;5039601;28;20020;-72
2022/01/12 14:58:23;;;;;;;19.33;9.80;;;;;;;;;;5044129;28;20612;-74
2022/01/12 15:00:50;;;;;;;24.93;10.57;;;;;;;;;;5047707;28;20047;-73
2022/01/12 15:03:23;;;;;;;20.07;10.50;;;;;;;;;;5044577;28;20056;-74
2022/01/12 15:05:50;;;;;;;29.93;13.03;;;;;;;;;;5041923;28;20020;-71
2022/01/12 15:08:23;;;;;;;20.97;11.47;;;;;;;;;;5038874;28;20044;-71
2022/01/12 15:10:49;;;;;;;18.67;10.73;;;;;;;;;;5035972;28;20154;-73
2022/01/12 15:13:25;;;;;;;22.47;10.97;;;;;;;;;;5040821;28;20473;-73
2022/01/12 15:15:53;;;;;;;26.23;10.80;;;;;;;;;;5039749;28;20397;-71
2022/01/12 15:18:23;;;;;;;19.47;10.50;;;;;;;;;;5040766;28;20103;-73
2022/01/12 15:20:51;;;;;;;22.40;10.13;;;;;;;;;;5028543;28;20033;-74
2022/01/12 15:23:18;;;;;;;28.77;11.23;;;;;;;;;;5040203;28;20544;-71
2022/01/12 15:25:47;;;;;;;20.43;11.30;;;;;;;;;;5042504;28;20036;-72
2022/01/12 15:28:13;;;;;;;19.20;9.53;;;;;;;;;;5041055;28;20083;-71
2022/01/12 15:30:42;;;;;;;19.13;10.47;;;;;;;;;;5044271;28;20531;-71
2022/01/12 15:33:12;;;;;;;19.02;9.95;;;;;;;;;;5046150;28;20040;-73
2022/01/12 15:35:38;;;;;;;14.27;8.60;;;;;;;;;;5042320;28;20047;-72
2022/01/12 15:38:05;;;;;;;23.33;10.13;;;;;;;;;;5046543;28;20468;-73
2022/01/12 15:40:31;;;;;;;16.60;9.17;;;;;;;;;;5042132;28;20040;-73
2022/01/12 15:42:58;;;;;;;21.37;9.43;;;;;;;;;;5044636;28;20029;-76
2022/01/12 15:45:23;;;;;;;20.73;9.77;;;;;;;;;;5043572;28;20050;-72
2022/01/12 15:47:50;;;;;;;15.60;8.93;;;;;;;;;;5044915;28;21337;-72
2022/01/12 15:50:16;;;;;;;19.07;10.17;;;;;;;;;;5040818;28;20029;-73
2022/01/12 15:52:42;;;;;;;20.03;10.00;;;;;;;;;;5046348;28;20113;-71
2022/01/12 15:55:10;;;;;;;20.70;11.40;;;;;;;;;;5055308;28;20396;-71
2022/01/12 15:57:36;;;;;;;21.13;11.33;;;;;;;;;;5048141;28;20516;-72
2022/01/12 16:00:05;;;;;;;22.07;10.50;;;;;;;;;;5045380;28;20025;-74
2022/01/12 16:02:31;;;;;;;18.77;10.83;;;;;;;;;;5042214;28;20028;-74